sensor_id;sensor_type;location;lat;lon;timestamp;P1;durP1;ratioP1;P2;durP2;ratioP2
69730;SDS011;56996;48.138;11.538;2023-02-23T00:01:59;17.10;;;7.30;;
69730;SDS011;56996;48.138;11.538;2023-02-23T00:04:32;19.10;;;9.30;;
69730;SDS011;56996;48.138;11.538;2023-02-23T00:07:00;18.20;;;8.80;;
69730;SDS011;56996;48.138;11.538;2023-02-23T00:09:27;18.80;;;8.80;;
69730;SDS011;56996;48.138;11.538;2023-02-23T00:12:03;17.80;;;9.30;;
69730;SDS011;56996;48.138;11.538;2023-02-23T00:14:35;19.90;;;8.80;;
69730;SDS011;56996;48.138;11.538;2023-02-23T00:17:06;18.80;;;9.10;;
69730;SDS011;56996;48.138;11.538;2023-02-23T00:19:40;19.20;;;8.90;;
69730;SDS011;56996;48.138;11.538;2023-02-23T00:22:09;18.70;;;9.10;;
69730;SDS011;56996;48.138;11.538;2023-02-23T00:24:37;18.50;;;8.90;;
69730;SDS011;56996;48.138;11.538;2023-02-23T00:27:05;19.70;;;8.80;;
69730;SDS011;56996;48.138;11.538;2023-02-23T00:29:32;17.40;;;8.90;;
69730;SDS011;56996;48.138;11.538;2023-02-23T00:32:04;16.70;;;8.70;;
69730;SDS011;56996;48.138;11.538;2023-02-23T00:34:34;18.60;;;8.80;;
69730;SDS011;56996;48.138;11.538;2023-02-23T00:37:02;18.40;;;8.60;;
69730;SDS011;56996;48.138;11.538;2023-02-23T00:39:29;19.70;;;9.20;;
69730;SDS011;56996;48.138;11.538;2023-02-23T00:41:56;19.70;;;9.20;;
69730;SDS011;56996;48.138;11.538;2023-02-23T00:44:28;18.40;;;9.00;;
69730;SDS011;56996;48.138;11.538;2023-02-23T00:46:55;18.70;;;8.40;;
69730;SDS011;56996;48.138;11.538;2023-02-23T00:49:22;18.20;;;9.10;;
69730;SDS011;56996;48.138;11.538;2023-02-23T00:51:49;19.90;;;9.20;;
69730;SDS011;56996;48.138;11.538;2023-02-23T00:54:19;18.10;;;8.30;;
69730;SDS011;56996;48.138;11.538;2023-02-23T00:56:47;17.10;;;8.50;;
69730;SDS011;56996;48.138;11.538;2023-02-23T00:59:14;18.00;;;9.10;;
69730;SDS011;56996;48.138;11.538;2023-02-23T01:01:41;19.80;;;9.60;;
69730;SDS011;56996;48.138;11.538;2023-02-23T01:04:09;19.30;;;8.70;;
69730;SDS011;56996;48.138;11.538;2023-02-23T01:06:38;16.10;;;8.30;;
69730;SDS011;56996;48.138;11.538;2023-02-23T01:09:08;18.80;;;9.40;;
69730;SDS011;56996;48.138;11.538;2023-02-23T01:11:41;18.50;;;9.10;;
69730;SDS011;56996;48.138;11.538;2023-02-23T01:14:13;19.10;;;8.70;;
69730;SDS011;56996;48.138;11.538;2023-02-23T01:16:39;19.00;;;8.90;;
69730;SDS011;56996;48.138;11.538;2023-02-23T01:19:07;18.90;;;8.70;;
69730;SDS011;56996;48.138;11.538;2023-02-23T01:21:35;18.10;;;8.50;;
69730;SDS011;56996;48.138;11.538;2023-02-23T01:24:04;18.20;;;9.10;;
69730;SDS011;56996;48.138;11.538;2023-02-23T01:26:35;17.80;;;8.90;;
69730;SDS011;56996;48.138;11.538;2023-02-23T01:29:06;19.80;;;9.50;;
69730;SDS011;56996;48.138;11.538;2023-02-23T01:31:37;20.80;;;10.10;;
69730;SDS011;56996;48.138;11.538;2023-02-23T01:34:06;19.10;;;9.80;;
69730;SDS011;56996;48.138;11.538;2023-02-23T01:36:37;21.80;;;10.50;;
69730;SDS011;56996;48.138;11.538;2023-02-23T01:39:09;18.30;;;9.30;;
69730;SDS011;56996;48.138;11.538;2023-02-23T01:41:39;19.20;;;9.70;;
69730;SDS011;56996;48.138;11.538;2023-02-23T01:46:57;19.50;;;9.70;;
69730;SDS011;56996;48.138;11.538;2023-02-23T01:49:27;22.60;;;10.50;;
69730;SDS011;56996;48.138;11.538;2023-02-23T01:52:01;21.90;;;10.10;;
69730;SDS011;56996;48.138;11.538;2023-02-23T01:54:36;19.40;;;8.90;;
69730;SDS011;56996;48.138;11.538;2023-02-23T01:57:06;20.90;;;10.60;;
69730;SDS011;56996;48.138;11.538;2023-02-23T01:59:43;21.60;;;9.80;;
69730;SDS011;56996;48.138;11.538;2023-02-23T02:02:11;20.00;;;10.70;;
69730;SDS011;56996;48.138;11.538;2023-02-23T02:04:41;19.30;;;9.50;;
69730;SDS011;56996;48.138;11.538;2023-02-23T02:07:23;20.50;;;9.90;;
69730;SDS011;56996;48.138;11.538;2023-02-23T02:09:54;21.00;;;10.10;;
69730;SDS011;56996;48.138;11.538;2023-02-23T02:12:39;20.00;;;9.80;;
69730;SDS011;56996;48.138;11.538;2023-02-23T02:15:08;21.30;;;9.70;;
69730;SDS011;56996;48.138;11.538;2023-02-23T02:17:58;20.90;;;10.70;;
69730;SDS011;56996;48.138;11.538;2023-02-23T02:23:31;20.20;;;10.00;;
69730;SDS011;56996;48.138;11.538;2023-02-23T02:32:15;22.00;;;9.80;;
69730;SDS011;56996;48.138;11.538;2023-02-23T02:38:54;19.50;;;9.20;;
69730;SDS011;56996;48.138;11.538;2023-02-23T02:41:56;20.10;;;9.80;;
69730;SDS011;56996;48.138;11.538;2023-02-23T02:47:11;21.80;;;9.90;;
69730;SDS011;56996;48.138;11.538;2023-02-23T02:49:52;19.50;;;10.10;;
69730;SDS011;56996;48.138;11.538;2023-02-23T02:52:28;20.30;;;9.80;;
69730;SDS011;56996;48.138;11.538;2023-02-23T02:55:16;19.60;;;10.00;;
69730;SDS011;56996;48.138;11.538;2023-02-23T02:57:50;21.70;;;10.40;;
69730;SDS011;56996;48.138;11.538;2023-02-23T03:00:30;20.70;;;10.20;;
69730;SDS011;56996;48.138;11.538;2023-02-23T03:03:28;22.20;;;10.80;;
69730;SDS011;56996;48.138;11.538;2023-02-23T03:06:14;20.60;;;10.30;;
69730;SDS011;56996;48.138;11.538;2023-02-23T03:22:09;22.40;;;10.90;;
69730;SDS011;56996;48.138;11.538;2023-02-23T03:28:15;21.40;;;10.50;;
69730;SDS011;56996;48.138;11.538;2023-02-23T03:34:13;23.10;;;10.60;;
69730;SDS011;56996;48.138;11.538;2023-02-23T03:37:15;23.10;;;10.50;;
69730;SDS011;56996;48.138;11.538;2023-02-23T03:40:17;26.40;;;11.30;;
69730;SDS011;56996;48.138;11.538;2023-02-23T03:43:16;25.80;;;11.80;;
69730;SDS011;56996;48.138;11.538;2023-02-23T03:46:06;24.10;;;11.20;;
69730;SDS011;56996;48.138;11.538;2023-02-23T03:48:54;20.70;;;10.50;;
69730;SDS011;56996;48.138;11.538;2023-02-23T03:51:47;22.40;;;10.80;;
69730;SDS011;56996;48.138;11.538;2023-02-23T03:55:00;23.80;;;11.20;;
69730;SDS011;56996;48.138;11.538;2023-02-23T03:57:51;21.50;;;10.00;;
69730;SDS011;56996;48.138;11.538;2023-02-23T04:00:44;21.90;;;10.70;;
69730;SDS011;56996;48.138;11.538;2023-02-23T04:03:33;24.10;;;11.50;;
69730;SDS011;56996;48.138;11.538;2023-02-23T04:06:24;22.80;;;11.20;;
69730;SDS011;56996;48.138;11.538;2023-02-23T04:09:12;22.40;;;10.90;;
69730;SDS011;56996;48.138;11.538;2023-02-23T04:12:08;24.70;;;10.50;;
69730;SDS011;56996;48.138;11.538;2023-02-23T04:15:06;23.10;;;11.00;;
69730;SDS011;56996;48.138;11.538;2023-02-23T04:17:36;23.40;;;10.50;;
69730;SDS011;56996;48.138;11.538;2023-02-23T04:20:03;23.10;;;11.30;;
69730;SDS011;56996;48.138;11.538;2023-02-23T04:22:32;25.30;;;10.90;;
69730;SDS011;56996;48.138;11.538;2023-02-23T04:25:00;23.00;;;11.10;;
69730;SDS011;56996;48.138;11.538;2023-02-23T04:27:27;23.50;;;11.40;;
69730;SDS011;56996;48.138;11.538;2023-02-23T04:29:54;23.90;;;11.40;;
69730;SDS011;56996;48.138;11.538;2023-02-23T04:32:20;24.10;;;11.60;;
69730;SDS011;56996;48.138;11.538;2023-02-23T04:34:47;20.10;;;9.60;;
69730;SDS011;56996;48.138;11.538;2023-02-23T04:37:15;22.80;;;10.90;;
69730;SDS011;56996;48.138;11.538;2023-02-23T04:39:42;22.10;;;10.50;;
69730;SDS011;56996;48.138;11.538;2023-02-23T04:42:14;24.00;;;11.70;;
69730;SDS011;56996;48.138;11.538;2023-02-23T04:44:42;24.20;;;11.30;;
69730;SDS011;56996;48.138;11.538;2023-02-23T04:47:10;21.40;;;11.00;;
69730;SDS011;56996;48.138;11.538;2023-02-23T04:49:39;22.40;;;10.80;;
69730;SDS011;56996;48.138;11.538;2023-02-23T04:52:06;22.80;;;9.50;;
69730;SDS011;56996;48.138;11.538;2023-02-23T04:54:32;22.70;;;11.20;;
69730;SDS011;56996;48.138;11.538;2023-02-23T04:56:59;22.00;;;10.00;;
69730;SDS011;56996;48.138;11.538;2023-02-23T04:59:26;24.20;;;10.70;;
69730;SDS011;56996;48.138;11.538;2023-02-23T05:01:54;24.80;;;11.50;;
69730;SDS011;56996;48.138;11.538;2023-02-23T05:04:21;24.10;;;10.80;;
69730;SDS011;56996;48.138;11.538;2023-02-23T05:06:48;21.40;;;10.40;;
69730;SDS011;56996;48.138;11.538;2023-02-23T05:09:14;22.40;;;10.80;;
69730;SDS011;56996;48.138;11.538;2023-02-23T05:11:41;20.60;;;10.00;;
69730;SDS011;56996;48.138;11.538;2023-02-23T05:14:08;20.90;;;9.60;;
69730;SDS011;56996;48.138;11.538;2023-02-23T05:16:35;21.80;;;10.30;;
69730;SDS011;56996;48.138;11.538;2023-02-23T05:19:02;22.80;;;10.40;;
69730;SDS011;56996;48.138;11.538;2023-02-23T05:21:29;21.50;;;10.20;;
69730;SDS011;56996;48.138;11.538;2023-02-23T05:23:56;24.80;;;10.80;;
69730;SDS011;56996;48.138;11.538;2023-02-23T05:26:23;22.90;;;10.10;;
69730;SDS011;56996;48.138;11.538;2023-02-23T05:28:51;20.00;;;9.60;;
69730;SDS011;56996;48.138;11.538;2023-02-23T05:31:17;21.10;;;9.60;;
69730;SDS011;56996;48.138;11.538;2023-02-23T05:33:45;20.70;;;10.10;;
69730;SDS011;56996;48.138;11.538;2023-02-23T05:36:13;21.60;;;9.30;;
69730;SDS011;56996;48.138;11.538;2023-02-23T05:38:43;20.60;;;10.20;;
69730;SDS011;56996;48.138;11.538;2023-02-23T05:41:13;22.30;;;10.20;;
69730;SDS011;56996;48.138;11.538;2023-02-23T05:43:42;23.40;;;9.80;;
69730;SDS011;56996;48.138;11.538;2023-02-23T05:46:15;21.10;;;10.50;;
69730;SDS011;56996;48.138;11.538;2023-02-23T05:48:43;22.10;;;10.20;;
69730;SDS011;56996;48.138;11.538;2023-02-23T05:51:12;17.80;;;9.20;;
69730;SDS011;56996;48.138;11.538;2023-02-23T05:53:41;20.90;;;9.50;;
69730;SDS011;56996;48.138;11.538;2023-02-23T05:56:12;22.90;;;9.50;;
69730;SDS011;56996;48.138;11.538;2023-02-23T05:58:56;24.20;;;10.30;;
69730;SDS011;56996;48.138;11.538;2023-02-23T06:01:24;21.70;;;10.30;;
69730;SDS011;56996;48.138;11.538;2023-02-23T06:03:52;22.60;;;10.30;;
69730;SDS011;56996;48.138;11.538;2023-02-23T06:06:19;21.80;;;10.90;;
69730;SDS011;56996;48.138;11.538;2023-02-23T06:08:47;22.00;;;11.00;;
69730;SDS011;56996;48.138;11.538;2023-02-23T06:11:15;26.40;;;10.90;;
69730;SDS011;56996;48.138;11.538;2023-02-23T06:13:41;22.00;;;10.10;;
69730;SDS011;56996;48.138;11.538;2023-02-23T06:16:08;21.30;;;9.60;;
69730;SDS011;56996;48.138;11.538;2023-02-23T06:18:35;20.80;;;10.30;;
69730;SDS011;56996;48.138;11.538;2023-02-23T06:21:02;21.70;;;9.90;;
69730;SDS011;56996;48.138;11.538;2023-02-23T06:23:30;22.50;;;10.20;;
69730;SDS011;56996;48.138;11.538;2023-02-23T06:25:58;19.90;;;9.70;;
69730;SDS011;56996;48.138;11.538;2023-02-23T06:28:26;22.30;;;10.30;;
69730;SDS011;56996;48.138;11.538;2023-02-23T06:30:54;22.50;;;10.20;;
69730;SDS011;56996;48.138;11.538;2023-02-23T06:33:22;63.40;;;32.90;;
69730;SDS011;56996;48.138;11.538;2023-02-23T06:35:49;25.20;;;11.70;;
69730;SDS011;56996;48.138;11.538;2023-02-23T06:38:16;24.10;;;10.90;;
69730;SDS011;56996;48.138;11.538;2023-02-23T06:40:42;22.50;;;10.50;;
69730;SDS011;56996;48.138;11.538;2023-02-23T06:43:09;26.30;;;11.40;;
69730;SDS011;56996;48.138;11.538;2023-02-23T06:45:36;20.90;;;10.50;;
69730;SDS011;56996;48.138;11.538;2023-02-23T06:48:03;61.40;;;42.30;;
69730;SDS011;56996;48.138;11.538;2023-02-23T06:50:30;27.70;;;12.90;;
69730;SDS011;56996;48.138;11.538;2023-02-23T06:52:57;28.50;;;11.20;;
69730;SDS011;56996;48.138;11.538;2023-02-23T06:55:24;21.70;;;9.60;;
69730;SDS011;56996;48.138;11.538;2023-02-23T06:57:51;21.10;;;10.20;;
69730;SDS011;56996;48.138;11.538;2023-02-23T07:00:19;22.40;;;10.40;;
69730;SDS011;56996;48.138;11.538;2023-02-23T07:02:46;21.90;;;10.20;;
69730;SDS011;56996;48.138;11.538;2023-02-23T07:05:13;23.20;;;10.20;;
69730;SDS011;56996;48.138;11.538;2023-02-23T07:07:39;19.10;;;9.80;;
69730;SDS011;56996;48.138;11.538;2023-02-23T07:10:06;38.00;;;22.50;;
69730;SDS011;56996;48.138;11.538;2023-02-23T07:12:33;22.20;;;10.50;;
69730;SDS011;56996;48.138;11.538;2023-02-23T07:15:00;21.20;;;9.80;;
69730;SDS011;56996;48.138;11.538;2023-02-23T07:17:27;23.60;;;10.30;;
69730;SDS011;56996;48.138;11.538;2023-02-23T07:19:53;20.70;;;9.50;;
69730;SDS011;56996;48.138;11.538;2023-02-23T07:22:20;19.70;;;9.30;;
69730;SDS011;56996;48.138;11.538;2023-02-23T07:24:47;19.30;;;9.10;;
69730;SDS011;56996;48.138;11.538;2023-02-23T07:27:14;20.20;;;9.30;;
69730;SDS011;56996;48.138;11.538;2023-02-23T07:29:41;18.10;;;9.00;;
69730;SDS011;56996;48.138;11.538;2023-02-23T07:32:07;21.40;;;9.50;;
69730;SDS011;56996;48.138;11.538;2023-02-23T07:34:34;21.60;;;9.30;;
69730;SDS011;56996;48.138;11.538;2023-02-23T07:37:02;19.30;;;8.80;;
69730;SDS011;56996;48.138;11.538;2023-02-23T07:39:29;20.90;;;9.10;;
69730;SDS011;56996;48.138;11.538;2023-02-23T07:41:56;20.20;;;9.00;;
69730;SDS011;56996;48.138;11.538;2023-02-23T07:44:23;22.10;;;9.20;;
69730;SDS011;56996;48.138;11.538;2023-02-23T07:46:50;24.30;;;11.10;;
69730;SDS011;56996;48.138;11.538;2023-02-23T07:49:18;22.20;;;10.60;;
69730;SDS011;56996;48.138;11.538;2023-02-23T07:51:44;20.10;;;9.70;;
69730;SDS011;56996;48.138;11.538;2023-02-23T07:54:11;20.10;;;8.40;;
69730;SDS011;56996;48.138;11.538;2023-02-23T07:56:39;23.50;;;9.90;;
69730;SDS011;56996;48.138;11.538;2023-02-23T07:59:05;18.40;;;8.20;;
69730;SDS011;56996;48.138;11.538;2023-02-23T08:01:32;18.90;;;9.60;;
69730;SDS011;56996;48.138;11.538;2023-02-23T08:03:59;20.20;;;9.20;;
69730;SDS011;56996;48.138;11.538;2023-02-23T08:06:26;19.50;;;9.10;;
69730;SDS011;56996;48.138;11.538;2023-02-23T08:08:53;19.10;;;8.60;;
69730;SDS011;56996;48.138;11.538;2023-02-23T08:11:19;18.30;;;8.50;;
69730;SDS011;56996;48.138;11.538;2023-02-23T08:13:46;17.10;;;8.80;;
69730;SDS011;56996;48.138;11.538;2023-02-23T08:16:13;23.30;;;9.80;;
69730;SDS011;56996;48.138;11.538;2023-02-23T08:18:41;19.30;;;9.10;;
69730;SDS011;56996;48.138;11.538;2023-02-23T08:21:08;25.90;;;13.20;;
69730;SDS011;56996;48.138;11.538;2023-02-23T08:23:35;26.20;;;13.20;;
69730;SDS011;56996;48.138;11.538;2023-02-23T08:26:03;21.90;;;9.50;;
69730;SDS011;56996;48.138;11.538;2023-02-23T08:28:30;20.10;;;9.50;;
69730;SDS011;56996;48.138;11.538;2023-02-23T08:30:57;20.60;;;8.60;;
69730;SDS011;56996;48.138;11.538;2023-02-23T08:33:25;21.10;;;9.60;;
69730;SDS011;56996;48.138;11.538;2023-02-23T08:35:52;18.70;;;9.20;;
69730;SDS011;56996;48.138;11.538;2023-02-23T08:38:19;22.40;;;9.50;;
69730;SDS011;56996;48.138;11.538;2023-02-23T08:40:46;20.60;;;9.20;;
69730;SDS011;56996;48.138;11.538;2023-02-23T08:43:13;35.70;;;21.50;;
69730;SDS011;56996;48.138;11.538;2023-02-23T08:45:39;23.30;;;11.40;;
69730;SDS011;56996;48.138;11.538;2023-02-23T08:48:06;26.10;;;10.00;;
69730;SDS011;56996;48.138;11.538;2023-02-23T08:50:34;20.40;;;9.90;;
69730;SDS011;56996;48.138;11.538;2023-02-23T08:53:01;23.60;;;9.70;;
69730;SDS011;56996;48.138;11.538;2023-02-23T08:55:29;20.70;;;9.50;;
69730;SDS011;56996;48.138;11.538;2023-02-23T08:57:56;17.70;;;9.20;;
69730;SDS011;56996;48.138;11.538;2023-02-23T09:00:23;19.30;;;9.40;;
69730;SDS011;56996;48.138;11.538;2023-02-23T09:02:50;28.60;;;15.60;;
69730;SDS011;56996;48.138;11.538;2023-02-23T09:05:17;21.20;;;10.10;;
69730;SDS011;56996;48.138;11.538;2023-02-23T09:07:44;17.60;;;9.00;;
69730;SDS011;56996;48.138;11.538;2023-02-23T09:10:18;19.60;;;9.20;;
69730;SDS011;56996;48.138;11.538;2023-02-23T09:12:45;18.00;;;8.40;;
69730;SDS011;56996;48.138;11.538;2023-02-23T09:15:12;18.60;;;8.10;;
69730;SDS011;56996;48.138;11.538;2023-02-23T09:17:39;18.20;;;8.50;;
69730;SDS011;56996;48.138;11.538;2023-02-23T09:20:09;16.40;;;8.40;;
69730;SDS011;56996;48.138;11.538;2023-02-23T09:22:39;16.60;;;8.90;;
69730;SDS011;56996;48.138;11.538;2023-02-23T09:25:11;17.80;;;9.00;;
69730;SDS011;56996;48.138;11.538;2023-02-23T09:27:38;18.50;;;9.10;;
69730;SDS011;56996;48.138;11.538;2023-02-23T09:30:05;17.20;;;8.60;;
69730;SDS011;56996;48.138;11.538;2023-02-23T09:32:32;22.00;;;9.60;;
69730;SDS011;56996;48.138;11.538;2023-02-23T09:34:59;17.10;;;8.20;;
69730;SDS011;56996;48.138;11.538;2023-02-23T09:37:26;16.50;;;7.80;;
69730;SDS011;56996;48.138;11.538;2023-02-23T09:39:52;17.50;;;7.50;;
69730;SDS011;56996;48.138;11.538;2023-02-23T09:45:59;13.40;;;6.20;;
69730;SDS011;56996;48.138;11.538;2023-02-23T09:48:32;13.20;;;5.70;;
69730;SDS011;56996;48.138;11.538;2023-02-23T09:51:00;12.30;;;4.70;;
69730;SDS011;56996;48.138;11.538;2023-02-23T09:56:40;13.60;;;6.10;;
69730;SDS011;56996;48.138;11.538;2023-02-23T09:59:15;16.10;;;6.40;;
69730;SDS011;56996;48.138;11.538;2023-02-23T10:01:54;15.50;;;6.80;;
69730;SDS011;56996;48.138;11.538;2023-02-23T10:04:27;13.90;;;5.80;;
69730;SDS011;56996;48.138;11.538;2023-02-23T10:10:02;11.90;;;5.30;;
69730;SDS011;56996;48.138;11.538;2023-02-23T10:13:07;12.70;;;5.30;;
69730;SDS011;56996;48.138;11.538;2023-02-23T10:15:52;17.60;;;8.80;;
69730;SDS011;56996;48.138;11.538;2023-02-23T10:23:59;13.20;;;6.00;;
69730;SDS011;56996;48.138;11.538;2023-02-23T10:27:34;13.30;;;6.40;;
69730;SDS011;56996;48.138;11.538;2023-02-23T10:35:17;11.60;;;5.20;;
69730;SDS011;56996;48.138;11.538;2023-02-23T10:37:47;11.20;;;5.30;;
69730;SDS011;56996;48.138;11.538;2023-02-23T10:40:16;11.90;;;6.10;;
69730;SDS011;56996;48.138;11.538;2023-02-23T10:42:51;8.20;;;3.20;;
69730;SDS011;56996;48.138;11.538;2023-02-23T10:45:20;14.80;;;5.40;;
69730;SDS011;56996;48.138;11.538;2023-02-23T10:47:56;10.40;;;3.90;;
69730;SDS011;56996;48.138;11.538;2023-02-23T10:50:24;9.50;;;3.70;;
69730;SDS011;56996;48.138;11.538;2023-02-23T10:53:03;10.60;;;4.60;;
69730;SDS011;56996;48.138;11.538;2023-02-23T10:55:37;10.30;;;4.50;;
69730;SDS011;56996;48.138;11.538;2023-02-23T10:58:15;13.10;;;5.10;;
69730;SDS011;56996;48.138;11.538;2023-02-23T11:00:57;9.90;;;4.30;;
69730;SDS011;56996;48.138;11.538;2023-02-23T11:06:34;10.80;;;4.20;;
69730;SDS011;56996;48.138;11.538;2023-02-23T11:09:27;11.20;;;4.60;;
69730;SDS011;56996;48.138;11.538;2023-02-23T11:14:53;10.80;;;4.80;;
69730;SDS011;56996;48.138;11.538;2023-02-23T11:17:37;12.00;;;5.10;;
69730;SDS011;56996;48.138;11.538;2023-02-23T11:20:13;10.00;;;4.30;;
69730;SDS011;56996;48.138;11.538;2023-02-23T11:22:46;11.60;;;4.70;;
69730;SDS011;56996;48.138;11.538;2023-02-23T11:25:19;10.60;;;4.80;;
69730;SDS011;56996;48.138;11.538;2023-02-23T11:27:51;12.10;;;5.40;;
69730;SDS011;56996;48.138;11.538;2023-02-23T11:30:20;11.30;;;5.30;;
69730;SDS011;56996;48.138;11.538;2023-02-23T11:32:53;9.50;;;4.00;;
69730;SDS011;56996;48.138;11.538;2023-02-23T11:37:49;11.40;;;5.30;;
69730;SDS011;56996;48.138;11.538;2023-02-23T11:43:13;12.40;;;5.80;;
69730;SDS011;56996;48.138;11.538;2023-02-23T11:45:47;13.10;;;5.70;;
69730;SDS011;56996;48.138;11.538;2023-02-23T11:48:42;10.10;;;4.90;;
69730;SDS011;56996;48.138;11.538;2023-02-23T11:51:31;11.70;;;5.30;;
69730;SDS011;56996;48.138;11.538;2023-02-23T11:54:00;11.60;;;5.30;;
69730;SDS011;56996;48.138;11.538;2023-02-23T11:56:32;10.70;;;5.20;;
69730;SDS011;56996;48.138;11.538;2023-02-23T11:59:03;11.20;;;5.10;;
69730;SDS011;56996;48.138;11.538;2023-02-23T12:01:49;12.20;;;5.20;;
69730;SDS011;56996;48.138;11.538;2023-02-23T12:07:27;11.40;;;4.10;;
69730;SDS011;56996;48.138;11.538;2023-02-23T12:10:18;10.80;;;4.90;;
69730;SDS011;56996;48.138;11.538;2023-02-23T12:13:04;9.60;;;4.50;;
69730;SDS011;56996;48.138;11.538;2023-02-23T12:19:05;11.40;;;4.80;;
69730;SDS011;56996;48.138;11.538;2023-02-23T12:21:39;10.80;;;4.50;;
69730;SDS011;56996;48.138;11.538;2023-02-23T12:26:58;15.70;;;4.00;;
69730;SDS011;56996;48.138;11.538;2023-02-23T12:32:33;13.10;;;6.80;;
69730;SDS011;56996;48.138;11.538;2023-02-23T12:35:20;10.40;;;3.10;;
69730;SDS011;56996;48.138;11.538;2023-02-23T12:41:04;7.70;;;2.80;;
69730;SDS011;56996;48.138;11.538;2023-02-23T12:43:55;10.00;;;4.00;;
69730;SDS011;56996;48.138;11.538;2023-02-23T12:46:30;13.90;;;6.50;;
69730;SDS011;56996;48.138;11.538;2023-02-23T12:52:18;8.40;;;3.10;;
69730;SDS011;56996;48.138;11.538;2023-02-23T12:54:47;7.50;;;2.60;;
69730;SDS011;56996;48.138;11.538;2023-02-23T13:00:14;7.80;;;3.30;;
69730;SDS011;56996;48.138;11.538;2023-02-23T13:09:50;8.30;;;3.40;;
69730;SDS011;56996;48.138;11.538;2023-02-23T13:18:18;7.90;;;2.70;;
69730;SDS011;56996;48.138;11.538;2023-02-23T13:20:54;6.90;;;2.30;;
69730;SDS011;56996;48.138;11.538;2023-02-23T13:23:29;6.00;;;1.90;;
69730;SDS011;56996;48.138;11.538;2023-02-23T13:31:45;6.90;;;2.40;;
69730;SDS011;56996;48.138;11.538;2023-02-23T13:34:19;7.30;;;2.60;;
69730;SDS011;56996;48.138;11.538;2023-02-23T13:36:50;8.40;;;2.50;;
69730;SDS011;56996;48.138;11.538;2023-02-23T13:39:44;7.60;;;2.40;;
69730;SDS011;56996;48.138;11.538;2023-02-23T13:48:59;9.50;;;2.80;;
69730;SDS011;56996;48.138;11.538;2023-02-23T13:51:44;7.80;;;2.20;;
69730;SDS011;56996;48.138;11.538;2023-02-23T13:56:50;7.30;;;2.00;;
69730;SDS011;56996;48.138;11.538;2023-02-23T13:59:28;6.00;;;1.90;;
69730;SDS011;56996;48.138;11.538;2023-02-23T14:02:04;7.80;;;2.60;;
69730;SDS011;56996;48.138;11.538;2023-02-23T14:04:45;6.10;;;1.90;;
69730;SDS011;56996;48.138;11.538;2023-02-23T14:07:22;8.00;;;2.20;;
69730;SDS011;56996;48.138;11.538;2023-02-23T14:09:59;7.30;;;2.00;;
69730;SDS011;56996;48.138;11.538;2023-02-23T14:13:05;6.50;;;1.80;;
69730;SDS011;56996;48.138;11.538;2023-02-23T14:15:40;6.60;;;1.80;;
69730;SDS011;56996;48.138;11.538;2023-02-23T14:34:51;9.00;;;1.70;;
69730;SDS011;56996;48.138;11.538;2023-02-23T14:42:56;7.10;;;2.10;;
69730;SDS011;56996;48.138;11.538;2023-02-23T14:45:30;6.40;;;2.00;;
69730;SDS011;56996;48.138;11.538;2023-02-23T14:48:10;5.50;;;1.80;;
69730;SDS011;56996;48.138;11.538;2023-02-23T14:50:42;7.50;;;1.90;;
69730;SDS011;56996;48.138;11.538;2023-02-23T14:53:17;7.70;;;2.00;;
69730;SDS011;56996;48.138;11.538;2023-02-23T14:55:47;7.00;;;2.00;;
69730;SDS011;56996;48.138;11.538;2023-02-23T14:58:33;8.20;;;2.20;;
69730;SDS011;56996;48.138;11.538;2023-02-23T15:01:00;20.60;;;9.90;;
69730;SDS011;56996;48.138;11.538;2023-02-23T15:03:27;8.20;;;2.10;;
69730;SDS011;56996;48.138;11.538;2023-02-23T15:05:56;8.10;;;2.40;;
69730;SDS011;56996;48.138;11.538;2023-02-23T15:08:28;8.30;;;2.30;;
69730;SDS011;56996;48.138;11.538;2023-02-23T15:11:03;7.90;;;2.20;;
69730;SDS011;56996;48.138;11.538;2023-02-23T15:13:35;6.40;;;2.20;;
69730;SDS011;56996;48.138;11.538;2023-02-23T15:16:07;6.50;;;1.70;;
69730;SDS011;56996;48.138;11.538;2023-02-23T15:18:40;8.80;;;2.70;;
69730;SDS011;56996;48.138;11.538;2023-02-23T15:21:11;6.60;;;1.80;;
69730;SDS011;56996;48.138;11.538;2023-02-23T15:23:43;8.90;;;2.10;;
69730;SDS011;56996;48.138;11.538;2023-02-23T15:26:34;6.80;;;2.10;;
69730;SDS011;56996;48.138;11.538;2023-02-23T15:29:15;7.30;;;2.40;;
69730;SDS011;56996;48.138;11.538;2023-02-23T15:31:47;7.20;;;2.50;;
69730;SDS011;56996;48.138;11.538;2023-02-23T15:34:24;7.80;;;2.10;;
69730;SDS011;56996;48.138;11.538;2023-02-23T15:36:58;8.10;;;2.20;;
69730;SDS011;56996;48.138;11.538;2023-02-23T15:39:36;7.90;;;2.50;;
69730;SDS011;56996;48.138;11.538;2023-02-23T15:42:06;7.00;;;2.80;;
69730;SDS011;56996;48.138;11.538;2023-02-23T15:44:39;7.50;;;2.30;;
69730;SDS011;56996;48.138;11.538;2023-02-23T15:47:21;7.70;;;2.60;;
69730;SDS011;56996;48.138;11.538;2023-02-23T15:50:04;7.10;;;2.50;;
69730;SDS011;56996;48.138;11.538;2023-02-23T15:52:38;6.10;;;2.00;;
69730;SDS011;56996;48.138;11.538;2023-02-23T15:55:19;6.00;;;1.60;;
69730;SDS011;56996;48.138;11.538;2023-02-23T15:58:01;4.90;;;1.40;;
69730;SDS011;56996;48.138;11.538;2023-02-23T16:00:43;7.20;;;1.60;;
69730;SDS011;56996;48.138;11.538;2023-02-23T16:03:40;7.30;;;2.00;;
69730;SDS011;56996;48.138;11.538;2023-02-23T16:06:30;10.20;;;2.00;;
69730;SDS011;56996;48.138;11.538;2023-02-23T16:09:10;7.40;;;2.20;;
69730;SDS011;56996;48.138;11.538;2023-02-23T16:12:02;7.10;;;2.20;;
69730;SDS011;56996;48.138;11.538;2023-02-23T16:14:57;8.50;;;2.90;;
69730;SDS011;56996;48.138;11.538;2023-02-23T16:20:52;9.80;;;3.40;;
69730;SDS011;56996;48.138;11.538;2023-02-23T16:23:33;8.90;;;3.20;;
69730;SDS011;56996;48.138;11.538;2023-02-23T16:26:23;10.70;;;4.50;;
69730;SDS011;56996;48.138;11.538;2023-02-23T16:28:59;7.90;;;2.90;;
69730;SDS011;56996;48.138;11.538;2023-02-23T16:31:42;8.60;;;2.80;;
69730;SDS011;56996;48.138;11.538;2023-02-23T16:34:24;7.40;;;2.60;;
69730;SDS011;56996;48.138;11.538;2023-02-23T16:37:00;11.60;;;4.00;;
69730;SDS011;56996;48.138;11.538;2023-02-23T16:39:30;6.80;;;2.20;;
69730;SDS011;56996;48.138;11.538;2023-02-23T16:41:59;7.00;;;2.50;;
69730;SDS011;56996;48.138;11.538;2023-02-23T16:44:27;7.10;;;2.40;;
69730;SDS011;56996;48.138;11.538;2023-02-23T16:49:34;9.10;;;3.00;;
69730;SDS011;56996;48.138;11.538;2023-02-23T16:52:05;10.40;;;2.60;;
69730;SDS011;56996;48.138;11.538;2023-02-23T16:54:39;8.60;;;3.10;;
69730;SDS011;56996;48.138;11.538;2023-02-23T16:57:23;7.90;;;3.00;;
69730;SDS011;56996;48.138;11.538;2023-02-23T16:59:52;9.40;;;3.00;;
69730;SDS011;56996;48.138;11.538;2023-02-23T17:02:20;8.60;;;2.70;;
69730;SDS011;56996;48.138;11.538;2023-02-23T17:04:50;7.80;;;2.70;;
69730;SDS011;56996;48.138;11.538;2023-02-23T17:07:19;9.40;;;2.80;;
69730;SDS011;56996;48.138;11.538;2023-02-23T17:09:49;10.10;;;3.10;;
69730;SDS011;56996;48.138;11.538;2023-02-23T17:12:16;7.80;;;2.80;;
69730;SDS011;56996;48.138;11.538;2023-02-23T17:14:48;8.40;;;2.90;;
69730;SDS011;56996;48.138;11.538;2023-02-23T17:17:16;9.70;;;3.60;;
69730;SDS011;56996;48.138;11.538;2023-02-23T17:19:44;8.70;;;3.10;;
69730;SDS011;56996;48.138;11.538;2023-02-23T17:22:12;8.30;;;3.20;;
69730;SDS011;56996;48.138;11.538;2023-02-23T17:24:41;10.80;;;3.30;;